< < Back
Terminal Aerodrome Forecast


Current Version              Previous Versions:   1  2  3  4  5  6  7  8  9  

Terminal Aerodrome Forecast

013
FTUS42 KFFC 312100 AAA
TAFMCN
TAF AMD
KMCN 312138Z 3122/0118 31010G18KT P6SM BKN080
     FM010400 31012G25KT P6SM BKN025
     FM011400 30020G32KT P6SM SCT030=

Latest METAR

161
SAUS80 KWBC 010900 RRH
MTRMCN
METAR KMCN 010853Z AUTO 28010G17KT 10SM CLR 03/M03 A2994 RMK AO2 SLP137
T00331033 57004 TSNO


USA.gov is the U.S. government's official web portal to all federal, state and local government web resources and services.